sensor_id;sensor_type;location;lat;lon;timestamp;P1;durP1;ratioP1;P2;durP2;ratioP2
43807;SDS011;29438;50.664;10.098;2023-02-23T07:42:41;57.90;;;22.42;;
43807;SDS011;29438;50.664;10.098;2023-02-23T07:45:07;66.15;;;25.73;;
43807;SDS011;29438;50.664;10.098;2023-02-23T07:47:32;124.70;;;42.55;;
43807;SDS011;29438;50.664;10.098;2023-02-23T07:49:59;139.60;;;50.78;;
43807;SDS011;29438;50.664;10.098;2023-02-23T07:52:27;147.13;;;51.22;;
43807;SDS011;29438;50.664;10.098;2023-02-23T07:54:52;128.50;;;45.28;;
43807;SDS011;29438;50.664;10.098;2023-02-23T07:57:18;124.90;;;43.72;;
43807;SDS011;29438;50.664;10.098;2023-02-23T07:59:45;111.38;;;40.92;;
43807;SDS011;29438;50.664;10.098;2023-02-23T08:02:12;84.93;;;31.83;;
43807;SDS011;29438;50.664;10.098;2023-02-23T08:04:38;69.93;;;27.65;;
43807;SDS011;29438;50.664;10.098;2023-02-23T08:07:04;70.05;;;26.65;;
43807;SDS011;29438;50.664;10.098;2023-02-23T08:09:30;73.10;;;28.67;;
43807;SDS011;29438;50.664;10.098;2023-02-23T08:11:59;77.50;;;29.48;;
43807;SDS011;29438;50.664;10.098;2023-02-23T08:14:25;66.85;;;28.70;;
43807;SDS011;29438;50.664;10.098;2023-02-23T08:16:50;63.25;;;26.90;;
43807;SDS011;29438;50.664;10.098;2023-02-23T08:19:16;61.97;;;25.42;;
43807;SDS011;29438;50.664;10.098;2023-02-23T08:21:41;63.67;;;26.33;;
43807;SDS011;29438;50.664;10.098;2023-02-23T08:24:07;68.05;;;26.50;;
43807;SDS011;29438;50.664;10.098;2023-02-23T08:26:35;63.58;;;26.52;;
43807;SDS011;29438;50.664;10.098;2023-02-23T08:29:02;60.38;;;24.20;;
43807;SDS011;29438;50.664;10.098;2023-02-23T08:31:27;55.28;;;23.20;;
43807;SDS011;29438;50.664;10.098;2023-02-23T08:33:53;55.50;;;23.60;;
43807;SDS011;29438;50.664;10.098;2023-02-23T08:36:18;63.20;;;24.15;;
43807;SDS011;29438;50.664;10.098;2023-02-23T08:38:44;59.55;;;22.35;;
43807;SDS011;29438;50.664;10.098;2023-02-23T08:41:10;52.53;;;22.35;;
43807;SDS011;29438;50.664;10.098;2023-02-23T08:43:36;52.20;;;21.80;;
43807;SDS011;29438;50.664;10.098;2023-02-23T08:46:03;55.88;;;23.58;;
43807;SDS011;29438;50.664;10.098;2023-02-23T08:48:29;53.70;;;22.23;;
43807;SDS011;29438;50.664;10.098;2023-02-23T08:50:55;57.80;;;23.02;;
43807;SDS011;29438;50.664;10.098;2023-02-23T08:53:22;51.80;;;21.23;;
43807;SDS011;29438;50.664;10.098;2023-02-23T08:55:53;55.53;;;21.27;;
43807;SDS011;29438;50.664;10.098;2023-02-23T08:58:30;52.13;;;21.15;;
43807;SDS011;29438;50.664;10.098;2023-02-23T09:00:56;53.05;;;21.45;;
43807;SDS011;29438;50.664;10.098;2023-02-23T09:03:22;54.15;;;21.00;;
43807;SDS011;29438;50.664;10.098;2023-02-23T09:05:50;50.28;;;21.05;;
43807;SDS011;29438;50.664;10.098;2023-02-23T09:08:15;47.83;;;20.83;;
43807;SDS011;29438;50.664;10.098;2023-02-23T09:10:41;48.72;;;20.75;;
43807;SDS011;29438;50.664;10.098;2023-02-23T09:13:10;47.65;;;19.58;;
43807;SDS011;29438;50.664;10.098;2023-02-23T09:15:36;46.90;;;19.70;;
43807;SDS011;29438;50.664;10.098;2023-02-23T09:18:03;49.33;;;20.30;;
43807;SDS011;29438;50.664;10.098;2023-02-23T09:20:30;49.15;;;19.92;;
43807;SDS011;29438;50.664;10.098;2023-02-23T09:22:56;46.72;;;19.20;;
43807;SDS011;29438;50.664;10.098;2023-02-23T09:25:21;45.25;;;18.45;;
43807;SDS011;29438;50.664;10.098;2023-02-23T09:27:48;43.38;;;18.30;;
43807;SDS011;29438;50.664;10.098;2023-02-23T09:30:15;48.00;;;19.52;;
43807;SDS011;29438;50.664;10.098;2023-02-23T09:32:45;44.40;;;18.85;;
43807;SDS011;29438;50.664;10.098;2023-02-23T09:35:11;38.65;;;17.50;;
43807;SDS011;29438;50.664;10.098;2023-02-23T09:37:41;41.88;;;18.52;;
43807;SDS011;29438;50.664;10.098;2023-02-23T09:40:21;44.97;;;16.05;;
43807;SDS011;29438;50.664;10.098;2023-02-23T09:45:41;42.28;;;17.58;;
43807;SDS011;29438;50.664;10.098;2023-02-23T09:48:32;45.72;;;18.23;;
43807;SDS011;29438;50.664;10.098;2023-02-23T09:50:57;37.40;;;15.15;;
43807;SDS011;29438;50.664;10.098;2023-02-23T09:53:26;28.95;;;13.02;;
43807;SDS011;29438;50.664;10.098;2023-02-23T09:55:54;27.95;;;12.30;;
43807;SDS011;29438;50.664;10.098;2023-02-23T09:58:23;26.90;;;11.38;;
43807;SDS011;29438;50.664;10.098;2023-02-23T10:00:55;27.08;;;11.02;;
43807;SDS011;29438;50.664;10.098;2023-02-23T10:03:38;26.63;;;11.23;;
43807;SDS011;29438;50.664;10.098;2023-02-23T10:06:23;26.85;;;11.30;;
43807;SDS011;29438;50.664;10.098;2023-02-23T10:11:52;23.00;;;10.05;;
43807;SDS011;29438;50.664;10.098;2023-02-23T10:20:18;20.25;;;9.05;;
43807;SDS011;29438;50.664;10.098;2023-02-23T10:22:47;20.88;;;9.43;;
43807;SDS011;29438;50.664;10.098;2023-02-23T10:25:18;20.83;;;8.98;;
43807;SDS011;29438;50.664;10.098;2023-02-23T10:27:49;19.48;;;8.70;;
43807;SDS011;29438;50.664;10.098;2023-02-23T10:30:17;17.60;;;8.63;;
43807;SDS011;29438;50.664;10.098;2023-02-23T10:32:52;17.42;;;7.68;;
43807;SDS011;29438;50.664;10.098;2023-02-23T10:35:41;16.63;;;8.48;;
43807;SDS011;29438;50.664;10.098;2023-02-23T10:38:07;23.33;;;11.63;;
43807;SDS011;29438;50.664;10.098;2023-02-23T10:40:39;18.23;;;9.15;;
43807;SDS011;29438;50.664;10.098;2023-02-23T10:43:05;20.70;;;9.32;;
43807;SDS011;29438;50.664;10.098;2023-02-23T10:45:33;22.05;;;10.02;;
43807;SDS011;29438;50.664;10.098;2023-02-23T10:48:10;16.75;;;7.68;;
43807;SDS011;29438;50.664;10.098;2023-02-23T10:50:51;16.30;;;7.75;;
43807;SDS011;29438;50.664;10.098;2023-02-23T10:53:22;17.73;;;8.02;;
43807;SDS011;29438;50.664;10.098;2023-02-23T10:58:38;17.73;;;8.10;;
43807;SDS011;29438;50.664;10.098;2023-02-23T11:01:21;18.38;;;7.95;;
43807;SDS011;29438;50.664;10.098;2023-02-23T11:04:12;16.88;;;7.45;;
43807;SDS011;29438;50.664;10.098;2023-02-23T11:06:44;14.07;;;6.72;;
43807;SDS011;29438;50.664;10.098;2023-02-23T11:09:31;15.98;;;7.05;;
43807;SDS011;29438;50.664;10.098;2023-02-23T11:12:03;15.57;;;7.15;;
43807;SDS011;29438;50.664;10.098;2023-02-23T11:14:45;14.63;;;6.78;;
43807;SDS011;29438;50.664;10.098;2023-02-23T11:17:28;12.65;;;5.60;;
43807;SDS011;29438;50.664;10.098;2023-02-23T11:20:05;14.40;;;6.07;;
43807;SDS011;29438;50.664;10.098;2023-02-23T11:22:44;12.93;;;5.28;;
43807;SDS011;29438;50.664;10.098;2023-02-23T11:28:09;12.68;;;4.53;;
43807;SDS011;29438;50.664;10.098;2023-02-23T11:30:44;9.95;;;4.30;;
43807;SDS011;29438;50.664;10.098;2023-02-23T11:33:13;12.48;;;4.25;;
43807;SDS011;29438;50.664;10.098;2023-02-23T11:35:45;7.50;;;3.47;;
43807;SDS011;29438;50.664;10.098;2023-02-23T11:38:29;7.10;;;3.13;;
43807;SDS011;29438;50.664;10.098;2023-02-23T11:41:00;7.88;;;3.50;;
43807;SDS011;29438;50.664;10.098;2023-02-23T11:43:50;7.63;;;3.80;;
43807;SDS011;29438;50.664;10.098;2023-02-23T11:46:20;9.85;;;3.70;;
43807;SDS011;29438;50.664;10.098;2023-02-23T11:48:50;9.00;;;4.00;;
43807;SDS011;29438;50.664;10.098;2023-02-23T11:51:45;10.15;;;4.15;;
43807;SDS011;29438;50.664;10.098;2023-02-23T11:54:48;10.20;;;4.07;;
43807;SDS011;29438;50.664;10.098;2023-02-23T11:57:07;8.38;;;4.07;;
43807;SDS011;29438;50.664;10.098;2023-02-23T11:59:39;9.75;;;4.28;;
43807;SDS011;29438;50.664;10.098;2023-02-23T12:05:16;9.98;;;3.85;;
43807;SDS011;29438;50.664;10.098;2023-02-23T12:07:53;7.93;;;3.90;;
43807;SDS011;29438;50.664;10.098;2023-02-23T12:15:55;8.52;;;3.42;;
43807;SDS011;29438;50.664;10.098;2023-02-23T12:18:35;9.07;;;3.67;;
43807;SDS011;29438;50.664;10.098;2023-02-23T12:21:26;8.57;;;3.03;;
43807;SDS011;29438;50.664;10.098;2023-02-23T12:24:00;8.30;;;2.90;;
43807;SDS011;29438;50.664;10.098;2023-02-23T12:26:27;7.55;;;3.05;;
43807;SDS011;29438;50.664;10.098;2023-02-23T12:28:56;5.50;;;2.28;;
43807;SDS011;29438;50.664;10.098;2023-02-23T12:31:45;4.93;;;1.75;;
43807;SDS011;29438;50.664;10.098;2023-02-23T12:36:51;4.60;;;1.80;;
43807;SDS011;29438;50.664;10.098;2023-02-23T12:44:38;6.28;;;2.25;;
43807;SDS011;29438;50.664;10.098;2023-02-23T12:47:23;7.80;;;2.33;;
43807;SDS011;29438;50.664;10.098;2023-02-23T12:50:20;4.47;;;1.95;;
43807;SDS011;29438;50.664;10.098;2023-02-23T12:53:14;5.85;;;2.33;;
43807;SDS011;29438;50.664;10.098;2023-02-23T12:58:33;5.57;;;2.00;;
43807;SDS011;29438;50.664;10.098;2023-02-23T13:01:09;3.63;;;1.88;;
43807;SDS011;29438;50.664;10.098;2023-02-23T13:03:55;5.95;;;2.05;;
43807;SDS011;29438;50.664;10.098;2023-02-23T13:14:52;4.35;;;1.90;;
43807;SDS011;29438;50.664;10.098;2023-02-23T13:17:44;5.07;;;2.33;;
43807;SDS011;29438;50.664;10.098;2023-02-23T13:20:17;5.93;;;1.95;;
43807;SDS011;29438;50.664;10.098;2023-02-23T13:22:55;5.10;;;2.63;;
43807;SDS011;29438;50.664;10.098;2023-02-23T13:28:15;5.78;;;2.88;;
43807;SDS011;29438;50.664;10.098;2023-02-23T13:30:44;6.60;;;2.70;;
43807;SDS011;29438;50.664;10.098;2023-02-23T13:33:23;5.88;;;2.88;;
43807;SDS011;29438;50.664;10.098;2023-02-23T13:35:51;8.15;;;3.05;;
43807;SDS011;29438;50.664;10.098;2023-02-23T13:38:29;6.97;;;3.05;;
43807;SDS011;29438;50.664;10.098;2023-02-23T13:47:44;6.68;;;3.53;;
43807;SDS011;29438;50.664;10.098;2023-02-23T13:49:59;5.63;;;3.15;;
43807;SDS011;29438;50.664;10.098;2023-02-23T13:52:46;7.55;;;3.65;;
43807;SDS011;29438;50.664;10.098;2023-02-23T13:57:50;7.70;;;3.40;;
43807;SDS011;29438;50.664;10.098;2023-02-23T14:00:21;6.10;;;3.00;;
43807;SDS011;29438;50.664;10.098;2023-02-23T14:02:48;6.55;;;3.10;;
43807;SDS011;29438;50.664;10.098;2023-02-23T14:05:17;7.07;;;3.65;;
43807;SDS011;29438;50.664;10.098;2023-02-23T14:08:01;6.72;;;3.20;;
43807;SDS011;29438;50.664;10.098;2023-02-23T14:10:42;6.70;;;3.47;;
43807;SDS011;29438;50.664;10.098;2023-02-23T14:18:03;6.38;;;2.80;;
43807;SDS011;29438;50.664;10.098;2023-02-23T14:26:39;8.15;;;4.10;;
43807;SDS011;29438;50.664;10.098;2023-02-23T14:29:29;6.13;;;3.25;;
43807;SDS011;29438;50.664;10.098;2023-02-23T14:37:13;6.43;;;3.28;;
43807;SDS011;29438;50.664;10.098;2023-02-23T14:39:49;5.93;;;3.20;;
43807;SDS011;29438;50.664;10.098;2023-02-23T14:42:26;7.15;;;3.58;;
43807;SDS011;29438;50.664;10.098;2023-02-23T14:44:54;6.28;;;3.30;;
43807;SDS011;29438;50.664;10.098;2023-02-23T14:47:22;6.25;;;3.03;;
43807;SDS011;29438;50.664;10.098;2023-02-23T14:52:25;5.95;;;3.03;;
43807;SDS011;29438;50.664;10.098;2023-02-23T14:57:37;4.45;;;2.33;;
43807;SDS011;29438;50.664;10.098;2023-02-23T15:02:39;9.82;;;4.18;;
43807;SDS011;29438;50.664;10.098;2023-02-23T15:05:17;8.85;;;4.80;;
43807;SDS011;29438;50.664;10.098;2023-02-23T15:07:45;8.43;;;3.95;;
43807;SDS011;29438;50.664;10.098;2023-02-23T15:10:17;6.65;;;3.78;;
43807;SDS011;29438;50.664;10.098;2023-02-23T15:12:51;10.75;;;5.07;;
43807;SDS011;29438;50.664;10.098;2023-02-23T15:15:19;10.73;;;5.57;;
43807;SDS011;29438;50.664;10.098;2023-02-23T15:17:48;9.55;;;4.68;;
43807;SDS011;29438;50.664;10.098;2023-02-23T15:20:17;9.73;;;5.03;;
43807;SDS011;29438;50.664;10.098;2023-02-23T15:22:53;9.63;;;4.88;;
43807;SDS011;29438;50.664;10.098;2023-02-23T15:25:22;10.45;;;5.13;;
43807;SDS011;29438;50.664;10.098;2023-02-23T15:27:50;11.30;;;5.88;;
43807;SDS011;29438;50.664;10.098;2023-02-23T15:32:42;12.52;;;5.97;;
43807;SDS011;29438;50.664;10.098;2023-02-23T15:35:09;13.40;;;6.32;;
43807;SDS011;29438;50.664;10.098;2023-02-23T15:40:11;11.73;;;6.07;;
43807;SDS011;29438;50.664;10.098;2023-02-23T15:47:54;15.32;;;6.72;;
43807;SDS011;29438;50.664;10.098;2023-02-23T15:50:24;15.90;;;7.10;;
43807;SDS011;29438;50.664;10.098;2023-02-23T15:52:56;14.85;;;6.85;;
43807;SDS011;29438;50.664;10.098;2023-02-23T15:55:27;16.15;;;6.97;;
43807;SDS011;29438;50.664;10.098;2023-02-23T15:57:59;19.98;;;7.70;;
43807;SDS011;29438;50.664;10.098;2023-02-23T16:00:37;18.77;;;8.73;;
43807;SDS011;29438;50.664;10.098;2023-02-23T16:03:05;19.00;;;9.93;;
43807;SDS011;29438;50.664;10.098;2023-02-23T16:05:33;13.52;;;7.20;;
43807;SDS011;29438;50.664;10.098;2023-02-23T16:10:38;17.67;;;6.57;;
43807;SDS011;29438;50.664;10.098;2023-02-23T16:13:11;14.35;;;7.43;;
43807;SDS011;29438;50.664;10.098;2023-02-23T16:15:39;12.98;;;6.07;;
43807;SDS011;29438;50.664;10.098;2023-02-23T16:18:08;16.45;;;8.32;;
43807;SDS011;29438;50.664;10.098;2023-02-23T16:26:16;24.55;;;13.73;;
43807;SDS011;29438;50.664;10.098;2023-02-23T16:28:48;29.77;;;14.70;;
43807;SDS011;29438;50.664;10.098;2023-02-23T16:31:22;16.95;;;9.32;;
43807;SDS011;29438;50.664;10.098;2023-02-23T16:33:51;14.60;;;7.65;;
43807;SDS011;29438;50.664;10.098;2023-02-23T16:36:22;18.75;;;9.60;;
43807;SDS011;29438;50.664;10.098;2023-02-23T16:38:58;15.18;;;7.50;;
43807;SDS011;29438;50.664;10.098;2023-02-23T16:41:26;18.67;;;9.32;;
43807;SDS011;29438;50.664;10.098;2023-02-23T16:43:56;22.27;;;9.70;;
43807;SDS011;29438;50.664;10.098;2023-02-23T16:46:26;69.53;;;32.55;;
43807;SDS011;29438;50.664;10.098;2023-02-23T16:48:54;46.05;;;23.25;;
43807;SDS011;29438;50.664;10.098;2023-02-23T16:51:29;33.58;;;17.67;;
43807;SDS011;29438;50.664;10.098;2023-02-23T16:53:58;22.98;;;12.15;;
43807;SDS011;29438;50.664;10.098;2023-02-23T16:56:24;25.05;;;11.43;;
43807;SDS011;29438;50.664;10.098;2023-02-23T16:58:51;26.70;;;13.73;;
43807;SDS011;29438;50.664;10.098;2023-02-23T17:01:22;24.45;;;11.13;;
43807;SDS011;29438;50.664;10.098;2023-02-23T17:03:47;28.25;;;14.05;;
43807;SDS011;29438;50.664;10.098;2023-02-23T17:06:13;25.23;;;12.65;;
43807;SDS011;29438;50.664;10.098;2023-02-23T17:08:39;26.90;;;12.88;;
43807;SDS011;29438;50.664;10.098;2023-02-23T17:11:05;28.95;;;12.80;;
43807;SDS011;29438;50.664;10.098;2023-02-23T17:13:32;24.08;;;11.45;;
43807;SDS011;29438;50.664;10.098;2023-02-23T17:15:58;26.33;;;10.93;;
43807;SDS011;29438;50.664;10.098;2023-02-23T17:18:28;27.42;;;12.32;;
43807;SDS011;29438;50.664;10.098;2023-02-23T17:20:56;28.27;;;12.68;;
43807;SDS011;29438;50.664;10.098;2023-02-23T17:23:24;27.40;;;12.02;;
43807;SDS011;29438;50.664;10.098;2023-02-23T17:25:51;26.95;;;12.27;;
43807;SDS011;29438;50.664;10.098;2023-02-23T17:28:19;28.90;;;13.55;;
43807;SDS011;29438;50.664;10.098;2023-02-23T17:30:45;31.65;;;13.75;;
43807;SDS011;29438;50.664;10.098;2023-02-23T17:33:11;28.42;;;13.05;;
43807;SDS011;29438;50.664;10.098;2023-02-23T17:35:37;36.75;;;16.27;;
43807;SDS011;29438;50.664;10.098;2023-02-23T17:38:03;31.25;;;12.43;;
43807;SDS011;29438;50.664;10.098;2023-02-23T17:40:30;34.92;;;13.23;;
43807;SDS011;29438;50.664;10.098;2023-02-23T17:43:01;32.38;;;14.45;;
43807;SDS011;29438;50.664;10.098;2023-02-23T17:45:28;31.88;;;14.30;;
43807;SDS011;29438;50.664;10.098;2023-02-23T17:47:54;34.92;;;14.98;;
43807;SDS011;29438;50.664;10.098;2023-02-23T17:50:21;33.55;;;14.77;;
43807;SDS011;29438;50.664;10.098;2023-02-23T17:52:47;37.33;;;18.15;;
43807;SDS011;29438;50.664;10.098;2023-02-23T17:55:14;29.98;;;15.43;;
43807;SDS011;29438;50.664;10.098;2023-02-23T17:57:40;32.85;;;13.95;;
43807;SDS011;29438;50.664;10.098;2023-02-23T18:00:08;31.75;;;14.15;;
43807;SDS011;29438;50.664;10.098;2023-02-23T18:02:37;33.60;;;15.60;;
43807;SDS011;29438;50.664;10.098;2023-02-23T18:05:04;34.97;;;16.85;;
43807;SDS011;29438;50.664;10.098;2023-02-23T18:07:30;31.45;;;15.18;;
43807;SDS011;29438;50.664;10.098;2023-02-23T18:09:55;33.25;;;17.27;;
43807;SDS011;29438;50.664;10.098;2023-02-23T18:12:21;32.80;;;15.18;;
43807;SDS011;29438;50.664;10.098;2023-02-23T18:14:46;32.78;;;14.45;;
43807;SDS011;29438;50.664;10.098;2023-02-23T18:17:12;30.30;;;14.23;;
43807;SDS011;29438;50.664;10.098;2023-02-23T18:19:39;23.17;;;11.05;;
43807;SDS011;29438;50.664;10.098;2023-02-23T18:22:05;23.23;;;10.82;;
43807;SDS011;29438;50.664;10.098;2023-02-23T18:24:31;23.40;;;10.80;;
43807;SDS011;29438;50.664;10.098;2023-02-23T18:26:56;22.92;;;11.10;;
43807;SDS011;29438;50.664;10.098;2023-02-23T18:29:24;23.00;;;10.50;;
43807;SDS011;29438;50.664;10.098;2023-02-23T18:31:52;19.42;;;10.00;;
43807;SDS011;29438;50.664;10.098;2023-02-23T18:34:18;21.33;;;10.18;;
43807;SDS011;29438;50.664;10.098;2023-02-23T18:36:45;21.33;;;10.27;;
43807;SDS011;29438;50.664;10.098;2023-02-23T18:39:11;21.95;;;10.07;;
43807;SDS011;29438;50.664;10.098;2023-02-23T18:41:36;19.73;;;9.82;;
43807;SDS011;29438;50.664;10.098;2023-02-23T18:44:03;21.15;;;10.00;;
43807;SDS011;29438;50.664;10.098;2023-02-23T18:46:31;20.95;;;10.50;;
43807;SDS011;29438;50.664;10.098;2023-02-23T18:48:56;21.27;;;10.43;;
43807;SDS011;29438;50.664;10.098;2023-02-23T18:51:22;22.67;;;10.80;;
43807;SDS011;29438;50.664;10.098;2023-02-23T18:53:49;25.58;;;11.80;;
43807;SDS011;29438;50.664;10.098;2023-02-23T18:56:17;22.83;;;11.45;;
43807;SDS011;29438;50.664;10.098;2023-02-23T18:58:47;23.38;;;11.15;;
43807;SDS011;29438;50.664;10.098;2023-02-23T19:01:18;21.80;;;10.82;;
43807;SDS011;29438;50.664;10.098;2023-02-23T19:03:46;24.77;;;11.90;;
43807;SDS011;29438;50.664;10.098;2023-02-23T19:06:12;25.77;;;11.90;;
43807;SDS011;29438;50.664;10.098;2023-02-23T19:08:40;26.05;;;12.07;;
43807;SDS011;29438;50.664;10.098;2023-02-23T19:11:06;23.08;;;11.32;;
43807;SDS011;29438;50.664;10.098;2023-02-23T19:13:32;22.60;;;10.23;;
43807;SDS011;29438;50.664;10.098;2023-02-23T19:16:01;22.30;;;10.57;;
43807;SDS011;29438;50.664;10.098;2023-02-23T19:18:28;23.45;;;9.38;;
43807;SDS011;29438;50.664;10.098;2023-02-23T19:20:53;24.05;;;9.25;;
43807;SDS011;29438;50.664;10.098;2023-02-23T19:23:19;22.85;;;9.77;;
43807;SDS011;29438;50.664;10.098;2023-02-23T19:25:46;23.17;;;10.30;;
43807;SDS011;29438;50.664;10.098;2023-02-23T19:28:13;20.65;;;10.15;;
43807;SDS011;29438;50.664;10.098;2023-02-23T19:30:39;20.88;;;9.00;;
43807;SDS011;29438;50.664;10.098;2023-02-23T19:33:09;23.13;;;9.80;;
43807;SDS011;29438;50.664;10.098;2023-02-23T19:35:37;22.73;;;9.32;;
43807;SDS011;29438;50.664;10.098;2023-02-23T19:38:03;23.90;;;9.70;;
43807;SDS011;29438;50.664;10.098;2023-02-23T19:40:29;24.98;;;9.93;;
43807;SDS011;29438;50.664;10.098;2023-02-23T19:42:55;25.30;;;10.45;;
43807;SDS011;29438;50.664;10.098;2023-02-23T19:45:21;25.42;;;10.07;;
43807;SDS011;29438;50.664;10.098;2023-02-23T19:47:50;27.83;;;9.60;;
43807;SDS011;29438;50.664;10.098;2023-02-23T19:50:16;25.88;;;9.52;;
43807;SDS011;29438;50.664;10.098;2023-02-23T19:52:43;26.65;;;10.30;;
43807;SDS011;29438;50.664;10.098;2023-02-23T19:55:09;26.85;;;9.82;;
43807;SDS011;29438;50.664;10.098;2023-02-23T19:57:35;28.20;;;10.85;;
43807;SDS011;29438;50.664;10.098;2023-02-23T20:00:02;26.33;;;10.23;;
43807;SDS011;29438;50.664;10.098;2023-02-23T20:02:29;28.17;;;11.05;;
43807;SDS011;29438;50.664;10.098;2023-02-23T20:04:54;23.88;;;10.43;;
43807;SDS011;29438;50.664;10.098;2023-02-23T20:07:20;27.35;;;10.60;;
43807;SDS011;29438;50.664;10.098;2023-02-23T20:09:45;27.13;;;10.18;;
43807;SDS011;29438;50.664;10.098;2023-02-23T20:12:11;25.42;;;9.98;;
43807;SDS011;29438;50.664;10.098;2023-02-23T20:14:37;30.52;;;10.93;;
43807;SDS011;29438;50.664;10.098;2023-02-23T20:17:02;24.00;;;9.95;;
43807;SDS011;29438;50.664;10.098;2023-02-23T20:19:29;25.05;;;10.32;;
43807;SDS011;29438;50.664;10.098;2023-02-23T20:21:55;25.92;;;10.15;;
43807;SDS011;29438;50.664;10.098;2023-02-23T20:24:21;27.17;;;10.00;;
43807;SDS011;29438;50.664;10.098;2023-02-23T20:26:46;26.92;;;10.27;;
43807;SDS011;29438;50.664;10.098;2023-02-23T20:29:13;24.83;;;9.88;;
43807;SDS011;29438;50.664;10.098;2023-02-23T20:31:42;30.77;;;10.55;;
43807;SDS011;29438;50.664;10.098;2023-02-23T20:34:14;28.63;;;11.43;;
43807;SDS011;29438;50.664;10.098;2023-02-23T20:36:42;26.88;;;10.70;;
43807;SDS011;29438;50.664;10.098;2023-02-23T20:39:09;26.50;;;10.50;;
43807;SDS011;29438;50.664;10.098;2023-02-23T20:41:35;27.42;;;10.82;;
43807;SDS011;29438;50.664;10.098;2023-02-23T20:44:01;26.50;;;10.25;;
43807;SDS011;29438;50.664;10.098;2023-02-23T20:46:27;27.00;;;10.35;;
43807;SDS011;29438;50.664;10.098;2023-02-23T20:48:54;28.20;;;10.65;;
43807;SDS011;29438;50.664;10.098;2023-02-23T20:51:20;26.67;;;10.27;;
43807;SDS011;29438;50.664;10.098;2023-02-23T20:53:48;25.38;;;10.25;;
43807;SDS011;29438;50.664;10.098;2023-02-23T20:56:14;28.08;;;10.48;;
43807;SDS011;29438;50.664;10.098;2023-02-23T20:58:42;19.98;;;8.10;;
43807;SDS011;29438;50.664;10.098;2023-02-23T21:01:15;24.00;;;8.73;;
43807;SDS011;29438;50.664;10.098;2023-02-23T21:03:45;23.88;;;8.88;;
43807;SDS011;29438;50.664;10.098;2023-02-23T21:06:11;24.35;;;8.85;;
43807;SDS011;29438;50.664;10.098;2023-02-23T21:08:36;22.23;;;8.43;;
43807;SDS011;29438;50.664;10.098;2023-02-23T21:11:04;22.48;;;8.18;;
43807;SDS011;29438;50.664;10.098;2023-02-23T21:13:30;21.83;;;8.20;;
43807;SDS011;29438;50.664;10.098;2023-02-23T21:15:55;21.58;;;8.07;;
43807;SDS011;29438;50.664;10.098;2023-02-23T21:18:24;19.00;;;7.55;;
43807;SDS011;29438;50.664;10.098;2023-02-23T21:20:51;18.45;;;7.85;;
43807;SDS011;29438;50.664;10.098;2023-02-23T21:23:17;19.45;;;8.13;;
43807;SDS011;29438;50.664;10.098;2023-02-23T21:25:44;19.17;;;8.07;;
43807;SDS011;29438;50.664;10.098;2023-02-23T21:28:09;16.85;;;6.40;;
43807;SDS011;29438;50.664;10.098;2023-02-23T21:30:35;15.20;;;6.18;;
43807;SDS011;29438;50.664;10.098;2023-02-23T21:33:00;15.32;;;6.63;;
43807;SDS011;29438;50.664;10.098;2023-02-23T21:35:27;13.52;;;5.35;;
43807;SDS011;29438;50.664;10.098;2023-02-23T21:37:53;16.58;;;6.30;;
43807;SDS011;29438;50.664;10.098;2023-02-23T21:40:19;18.05;;;6.50;;
43807;SDS011;29438;50.664;10.098;2023-02-23T21:42:45;15.25;;;5.82;;
43807;SDS011;29438;50.664;10.098;2023-02-23T21:45:12;17.70;;;6.95;;
43807;SDS011;29438;50.664;10.098;2023-02-23T21:47:39;23.13;;;7.88;;
43807;SDS011;29438;50.664;10.098;2023-02-23T21:50:06;23.13;;;8.90;;
43807;SDS011;29438;50.664;10.098;2023-02-23T21:52:34;29.48;;;9.57;;
43807;SDS011;29438;50.664;10.098;2023-02-23T21:55:03;32.03;;;9.80;;
43807;SDS011;29438;50.664;10.098;2023-02-23T21:57:29;33.10;;;10.07;;
43807;SDS011;29438;50.664;10.098;2023-02-23T21:59:55;29.45;;;10.18;;
43807;SDS011;29438;50.664;10.098;2023-02-23T22:02:21;32.20;;;9.93;;
43807;SDS011;29438;50.664;10.098;2023-02-23T22:04:47;23.42;;;8.23;;
43807;SDS011;29438;50.664;10.098;2023-02-23T22:07:14;27.00;;;9.07;;
43807;SDS011;29438;50.664;10.098;2023-02-23T22:09:41;26.80;;;9.35;;
43807;SDS011;29438;50.664;10.098;2023-02-23T22:12:07;23.98;;;8.00;;
43807;SDS011;29438;50.664;10.098;2023-02-23T22:14:32;25.33;;;7.63;;
43807;SDS011;29438;50.664;10.098;2023-02-23T22:16:58;26.45;;;8.68;;
43807;SDS011;29438;50.664;10.098;2023-02-23T22:19:24;26.85;;;8.40;;
43807;SDS011;29438;50.664;10.098;2023-02-23T22:21:49;23.33;;;7.90;;
43807;SDS011;29438;50.664;10.098;2023-02-23T22:24:15;23.92;;;7.75;;
43807;SDS011;29438;50.664;10.098;2023-02-23T22:26:41;24.42;;;7.72;;
43807;SDS011;29438;50.664;10.098;2023-02-23T22:29:28;21.92;;;7.95;;
43807;SDS011;29438;50.664;10.098;2023-02-23T22:31:53;19.35;;;6.97;;
43807;SDS011;29438;50.664;10.098;2023-02-23T22:34:20;21.13;;;6.68;;
43807;SDS011;29438;50.664;10.098;2023-02-23T22:36:45;22.20;;;6.20;;
43807;SDS011;29438;50.664;10.098;2023-02-23T22:39:12;19.83;;;6.43;;
43807;SDS011;29438;50.664;10.098;2023-02-23T22:41:42;20.10;;;6.75;;
43807;SDS011;29438;50.664;10.098;2023-02-23T22:44:12;17.98;;;6.05;;
43807;SDS011;29438;50.664;10.098;2023-02-23T22:46:41;15.07;;;5.82;;
43807;SDS011;29438;50.664;10.098;2023-02-23T22:49:07;20.83;;;6.25;;
43807;SDS011;29438;50.664;10.098;2023-02-23T22:51:34;15.90;;;5.65;;
43807;SDS011;29438;50.664;10.098;2023-02-23T22:54:01;18.15;;;6.07;;
43807;SDS011;29438;50.664;10.098;2023-02-23T22:56:28;15.02;;;5.63;;
43807;SDS011;29438;50.664;10.098;2023-02-23T22:58:54;15.38;;;5.07;;
43807;SDS011;29438;50.664;10.098;2023-02-23T23:01:20;16.00;;;5.63;;
43807;SDS011;29438;50.664;10.098;2023-02-23T23:03:45;14.90;;;5.13;;
43807;SDS011;29438;50.664;10.098;2023-02-23T23:06:13;16.45;;;5.90;;
43807;SDS011;29438;50.664;10.098;2023-02-23T23:08:45;15.68;;;5.38;;
43807;SDS011;29438;50.664;10.098;2023-02-23T23:11:17;14.70;;;5.65;;
43807;SDS011;29438;50.664;10.098;2023-02-23T23:13:46;15.05;;;5.00;;
43807;SDS011;29438;50.664;10.098;2023-02-23T23:16:13;14.38;;;5.15;;
43807;SDS011;29438;50.664;10.098;2023-02-23T23:18:40;13.98;;;5.05;;
43807;SDS011;29438;50.664;10.098;2023-02-23T23:21:08;14.07;;;4.78;;
43807;SDS011;29438;50.664;10.098;2023-02-23T23:23:42;11.57;;;3.72;;
43807;SDS011;29438;50.664;10.098;2023-02-23T23:26:09;10.93;;;3.88;;
43807;SDS011;29438;50.664;10.098;2023-02-23T23:28:52;13.48;;;4.75;;
43807;SDS011;29438;50.664;10.098;2023-02-23T23:31:23;11.90;;;4.40;;
43807;SDS011;29438;50.664;10.098;2023-02-23T23:33:52;12.77;;;4.25;;
43807;SDS011;29438;50.664;10.098;2023-02-23T23:36:20;13.75;;;4.40;;
43807;SDS011;29438;50.664;10.098;2023-02-23T23:38:48;13.05;;;4.22;;
43807;SDS011;29438;50.664;10.098;2023-02-23T23:41:14;13.50;;;4.88;;
43807;SDS011;29438;50.664;10.098;2023-02-23T23:43:42;12.15;;;4.30;;
43807;SDS011;29438;50.664;10.098;2023-02-23T23:46:13;13.95;;;4.70;;
43807;SDS011;29438;50.664;10.098;2023-02-23T23:48:54;12.63;;;4.50;;
43807;SDS011;29438;50.664;10.098;2023-02-23T23:51:28;11.98;;;4.50;;
43807;SDS011;29438;50.664;10.098;2023-02-23T23:54:03;12.65;;;4.47;;